sensor_id;sensor_type;location;lat;lon;timestamp;pressure;altitude;pressure_sealevel;temperature
68952;BMP180;56000;51.146;17.112;2022-08-01T00:00:56;99993.60;;;16.16
68952;BMP180;56000;51.146;17.112;2022-08-01T00:03:29;99991.20;;;16.10
68952;BMP180;56000;51.146;17.112;2022-08-01T00:06:02;99993.80;;;16.10
68952;BMP180;56000;51.146;17.112;2022-08-01T00:08:35;99997.40;;;16.10
68952;BMP180;56000;51.146;17.112;2022-08-01T00:11:08;99987.60;;;16.00
68952;BMP180;56000;51.146;17.112;2022-08-01T00:13:41;99987.40;;;16.00
68952;BMP180;56000;51.146;17.112;2022-08-01T00:16:15;99988.40;;;16.00
68952;BMP180;56000;51.146;17.112;2022-08-01T00:18:48;99984.40;;;15.92
68952;BMP180;56000;51.146;17.112;2022-08-01T00:21:21;99986.60;;;15.90
68952;BMP180;56000;51.146;17.112;2022-08-01T00:23:54;99983.80;;;15.90
68952;BMP180;56000;51.146;17.112;2022-08-01T00:26:26;99986.80;;;15.90
68952;BMP180;56000;51.146;17.112;2022-08-01T00:29:00;99981.00;;;15.90
68952;BMP180;56000;51.146;17.112;2022-08-01T00:31:41;99979.40;;;15.90
68952;BMP180;56000;51.146;17.112;2022-08-01T00:34:14;99983.40;;;15.90
68952;BMP180;56000;51.146;17.112;2022-08-01T00:36:47;99982.80;;;15.90
68952;BMP180;56000;51.146;17.112;2022-08-01T00:39:20;99981.00;;;15.90
68952;BMP180;56000;51.146;17.112;2022-08-01T00:41:53;99981.60;;;15.90
68952;BMP180;56000;51.146;17.112;2022-08-01T00:44:30;99981.60;;;15.90
68952;BMP180;56000;51.146;17.112;2022-08-01T00:47:03;99978.80;;;15.80
68952;BMP180;56000;51.146;17.112;2022-08-01T00:49:36;99976.40;;;15.80
68952;BMP180;56000;51.146;17.112;2022-08-01T00:52:09;99970.40;;;15.70
68952;BMP180;56000;51.146;17.112;2022-08-01T00:54:42;99968.00;;;15.70
68952;BMP180;56000;51.146;17.112;2022-08-01T00:57:15;99966.20;;;15.70
68952;BMP180;56000;51.146;17.112;2022-08-01T01:00:12;99957.40;;;15.60
68952;BMP180;56000;51.146;17.112;2022-08-01T01:02:45;99961.60;;;15.60
68952;BMP180;56000;51.146;17.112;2022-08-01T01:05:18;99962.00;;;15.60
68952;BMP180;56000;51.146;17.112;2022-08-01T01:07:59;99959.60;;;15.60
68952;BMP180;56000;51.146;17.112;2022-08-01T01:10:40;99957.20;;;15.60
68952;BMP180;56000;51.146;17.112;2022-08-01T01:13:20;99958.80;;;15.58
68952;BMP180;56000;51.146;17.112;2022-08-01T01:16:02;99961.00;;;15.50
68952;BMP180;56000;51.146;17.112;2022-08-01T01:18:45;99965.60;;;15.50
68952;BMP180;56000;51.146;17.112;2022-08-01T01:21:39;99959.40;;;15.50
68952;BMP180;56000;51.146;17.112;2022-08-01T01:24:31;99956.80;;;15.50
68952;BMP180;56000;51.146;17.112;2022-08-01T01:27:14;99953.80;;;15.50
68952;BMP180;56000;51.146;17.112;2022-08-01T01:29:54;99954.40;;;15.50
68952;BMP180;56000;51.146;17.112;2022-08-01T01:32:35;99953.40;;;15.50
68952;BMP180;56000;51.146;17.112;2022-08-01T01:35:16;99955.80;;;15.50
68952;BMP180;56000;51.146;17.112;2022-08-01T01:37:57;99949.00;;;15.50
68952;BMP180;56000;51.146;17.112;2022-08-01T01:40:31;99948.00;;;15.50
68952;BMP180;56000;51.146;17.112;2022-08-01T01:43:06;99946.40;;;15.50
68952;BMP180;56000;51.146;17.112;2022-08-01T01:45:43;99940.80;;;15.50
68952;BMP180;56000;51.146;17.112;2022-08-01T01:48:19;99939.40;;;15.54
68952;BMP180;56000;51.146;17.112;2022-08-01T01:50:53;99933.80;;;15.60
68952;BMP180;56000;51.146;17.112;2022-08-01T01:53:29;99933.60;;;15.60
68952;BMP180;56000;51.146;17.112;2022-08-01T01:56:04;99937.00;;;15.60
68952;BMP180;56000;51.146;17.112;2022-08-01T01:58:39;99939.00;;;15.60
68952;BMP180;56000;51.146;17.112;2022-08-01T02:01:13;99935.00;;;15.60
68952;BMP180;56000;51.146;17.112;2022-08-01T02:04:07;99931.80;;;15.60
68952;BMP180;56000;51.146;17.112;2022-08-01T02:06:42;99932.00;;;15.70
68952;BMP180;56000;51.146;17.112;2022-08-01T02:09:18;99928.00;;;15.70
68952;BMP180;56000;51.146;17.112;2022-08-01T02:11:52;99929.20;;;15.70
68952;BMP180;56000;51.146;17.112;2022-08-01T02:14:40;99927.80;;;15.70
68952;BMP180;56000;51.146;17.112;2022-08-01T02:17:17;99922.40;;;15.70
68952;BMP180;56000;51.146;17.112;2022-08-01T02:19:51;99927.80;;;15.70
68952;BMP180;56000;51.146;17.112;2022-08-01T02:22:31;99925.40;;;15.70
68952;BMP180;56000;51.146;17.112;2022-08-01T02:25:13;99928.80;;;15.70
68952;BMP180;56000;51.146;17.112;2022-08-01T02:27:58;99921.20;;;15.64
68952;BMP180;56000;51.146;17.112;2022-08-01T02:30:35;99925.20;;;15.60
68952;BMP180;56000;51.146;17.112;2022-08-01T02:33:17;99926.80;;;15.60
68952;BMP180;56000;51.146;17.112;2022-08-01T02:35:56;99931.80;;;15.50
68952;BMP180;56000;51.146;17.112;2022-08-01T02:38:50;99923.20;;;15.50
68952;BMP180;56000;51.146;17.112;2022-08-01T02:41:26;99925.40;;;15.40
68952;BMP180;56000;51.146;17.112;2022-08-01T02:44:05;99918.40;;;15.30
68952;BMP180;56000;51.146;17.112;2022-08-01T02:46:44;99927.20;;;15.30
68952;BMP180;56000;51.146;17.112;2022-08-01T02:49:21;99926.20;;;15.20
68952;BMP180;56000;51.146;17.112;2022-08-01T02:51:58;99928.00;;;15.20
68952;BMP180;56000;51.146;17.112;2022-08-01T02:54:32;99926.00;;;15.10
68952;BMP180;56000;51.146;17.112;2022-08-01T02:57:08;99925.60;;;15.10
68952;BMP180;56000;51.146;17.112;2022-08-01T02:59:45;99923.80;;;15.10
68952;BMP180;56000;51.146;17.112;2022-08-01T03:02:20;99924.00;;;15.10
68952;BMP180;56000;51.146;17.112;2022-08-01T03:04:54;99922.20;;;15.10
68952;BMP180;56000;51.146;17.112;2022-08-01T03:07:29;99919.20;;;15.10
68952;BMP180;56000;51.146;17.112;2022-08-01T03:10:11;99923.80;;;15.10
68952;BMP180;56000;51.146;17.112;2022-08-01T03:12:47;99921.80;;;15.10
68952;BMP180;56000;51.146;17.112;2022-08-01T03:15:23;99923.40;;;15.20
68952;BMP180;56000;51.146;17.112;2022-08-01T03:17:57;99923.40;;;15.30
68952;BMP180;56000;51.146;17.112;2022-08-01T03:20:34;99918.40;;;15.34
68952;BMP180;56000;51.146;17.112;2022-08-01T03:23:10;99922.00;;;15.40
68952;BMP180;56000;51.146;17.112;2022-08-01T03:25:45;99924.20;;;15.50
68952;BMP180;56000;51.146;17.112;2022-08-01T03:28:22;99919.40;;;15.60
68952;BMP180;56000;51.146;17.112;2022-08-01T03:31:01;99922.80;;;15.60
68952;BMP180;56000;51.146;17.112;2022-08-01T03:33:34;99920.80;;;15.70
68952;BMP180;56000;51.146;17.112;2022-08-01T03:36:09;99923.80;;;15.80
68952;BMP180;56000;51.146;17.112;2022-08-01T03:38:44;99917.40;;;15.80
68952;BMP180;56000;51.146;17.112;2022-08-01T03:41:20;99925.00;;;15.90
68952;BMP180;56000;51.146;17.112;2022-08-01T03:43:58;99919.40;;;15.90
68952;BMP180;56000;51.146;17.112;2022-08-01T03:46:39;99917.60;;;16.00
68952;BMP180;56000;51.146;17.112;2022-08-01T03:49:17;99916.00;;;16.00
68952;BMP180;56000;51.146;17.112;2022-08-01T03:51:52;99921.80;;;16.10
68952;BMP180;56000;51.146;17.112;2022-08-01T03:54:30;99919.00;;;16.10
68952;BMP180;56000;51.146;17.112;2022-08-01T03:57:05;99918.60;;;16.10
68952;BMP180;56000;51.146;17.112;2022-08-01T03:59:50;99920.00;;;16.10
68952;BMP180;56000;51.146;17.112;2022-08-01T04:02:24;99926.00;;;16.20
68952;BMP180;56000;51.146;17.112;2022-08-01T04:04:58;99930.60;;;16.20
68952;BMP180;56000;51.146;17.112;2022-08-01T04:07:34;99929.20;;;16.20
68952;BMP180;56000;51.146;17.112;2022-08-01T04:10:09;99932.80;;;16.30
68952;BMP180;56000;51.146;17.112;2022-08-01T04:12:41;99936.00;;;16.30
68952;BMP180;56000;51.146;17.112;2022-08-01T04:15:14;99935.80;;;16.30
68952;BMP180;56000;51.146;17.112;2022-08-01T04:17:47;99935.60;;;16.30
68952;BMP180;56000;51.146;17.112;2022-08-01T04:20:20;99940.20;;;16.30
68952;BMP180;56000;51.146;17.112;2022-08-01T04:22:55;99939.20;;;16.26
68952;BMP180;56000;51.146;17.112;2022-08-01T04:25:32;99942.40;;;16.20
68952;BMP180;56000;51.146;17.112;2022-08-01T04:28:09;99937.40;;;16.20
68952;BMP180;56000;51.146;17.112;2022-08-01T04:30:52;99932.00;;;16.10
68952;BMP180;56000;51.146;17.112;2022-08-01T04:33:33;99924.20;;;16.10
68952;BMP180;56000;51.146;17.112;2022-08-01T04:36:12;99927.40;;;16.10
68952;BMP180;56000;51.146;17.112;2022-08-01T04:38:52;99923.40;;;16.10
68952;BMP180;56000;51.146;17.112;2022-08-01T04:41:27;99927.00;;;16.10
68952;BMP180;56000;51.146;17.112;2022-08-01T04:44:01;99931.40;;;16.10
68952;BMP180;56000;51.146;17.112;2022-08-01T04:46:35;99930.20;;;16.10
68952;BMP180;56000;51.146;17.112;2022-08-01T04:49:09;99931.60;;;16.10
68952;BMP180;56000;51.146;17.112;2022-08-01T04:51:55;99930.20;;;16.20
68952;BMP180;56000;51.146;17.112;2022-08-01T04:54:30;99931.40;;;16.20
68952;BMP180;56000;51.146;17.112;2022-08-01T04:57:05;99933.00;;;16.20
68952;BMP180;56000;51.146;17.112;2022-08-01T04:59:41;99931.00;;;16.20
68952;BMP180;56000;51.146;17.112;2022-08-01T05:02:17;99938.40;;;16.20
68952;BMP180;56000;51.146;17.112;2022-08-01T05:04:50;99935.80;;;16.30
68952;BMP180;56000;51.146;17.112;2022-08-01T05:07:23;99935.60;;;16.30
68952;BMP180;56000;51.146;17.112;2022-08-01T05:09:56;99931.60;;;16.30
68952;BMP180;56000;51.146;17.112;2022-08-01T05:12:29;99927.80;;;16.32
68952;BMP180;56000;51.146;17.112;2022-08-01T05:15:03;99932.20;;;16.36
68952;BMP180;56000;51.146;17.112;2022-08-01T05:17:44;99925.00;;;16.40
68952;BMP180;56000;51.146;17.112;2022-08-01T05:20:18;99925.00;;;16.40
68952;BMP180;56000;51.146;17.112;2022-08-01T05:22:51;99920.20;;;16.40
68952;BMP180;56000;51.146;17.112;2022-08-01T05:25:24;99928.20;;;16.40
68952;BMP180;56000;51.146;17.112;2022-08-01T05:28:17;99936.80;;;16.50
68952;BMP180;56000;51.146;17.112;2022-08-01T05:30:50;99931.40;;;16.60
68952;BMP180;56000;51.146;17.112;2022-08-01T05:33:26;99925.00;;;16.60
68952;BMP180;56000;51.146;17.112;2022-08-01T05:35:59;99922.80;;;16.70
68952;BMP180;56000;51.146;17.112;2022-08-01T05:38:32;99921.80;;;16.74
68952;BMP180;56000;51.146;17.112;2022-08-01T05:41:05;99925.00;;;16.80
68952;BMP180;56000;51.146;17.112;2022-08-01T05:43:37;99924.80;;;16.90
68952;BMP180;56000;51.146;17.112;2022-08-01T05:46:11;99925.20;;;17.00
68952;BMP180;56000;51.146;17.112;2022-08-01T05:48:43;99920.40;;;17.02
68952;BMP180;56000;51.146;17.112;2022-08-01T05:51:16;99920.40;;;17.10
68952;BMP180;56000;51.146;17.112;2022-08-01T05:53:49;99922.00;;;17.20
68952;BMP180;56000;51.146;17.112;2022-08-01T05:56:23;99924.80;;;17.30
68952;BMP180;56000;51.146;17.112;2022-08-01T05:59:03;99923.60;;;17.40
68952;BMP180;56000;51.146;17.112;2022-08-01T06:01:35;99930.60;;;17.50
68952;BMP180;56000;51.146;17.112;2022-08-01T06:04:08;99931.40;;;17.60
68952;BMP180;56000;51.146;17.112;2022-08-01T06:06:41;99925.40;;;17.70
68952;BMP180;56000;51.146;17.112;2022-08-01T06:09:14;99926.80;;;17.80
68952;BMP180;56000;51.146;17.112;2022-08-01T06:11:47;99932.00;;;18.00
68952;BMP180;56000;51.146;17.112;2022-08-01T06:14:20;99935.60;;;18.10
68952;BMP180;56000;51.146;17.112;2022-08-01T06:16:53;99931.40;;;18.20
68952;BMP180;56000;51.146;17.112;2022-08-01T06:19:25;99935.80;;;18.26
68952;BMP180;56000;51.146;17.112;2022-08-01T06:21:58;99937.60;;;18.30
68952;BMP180;56000;51.146;17.112;2022-08-01T06:24:32;99937.20;;;18.40
68952;BMP180;56000;51.146;17.112;2022-08-01T06:27:05;99933.60;;;18.60
68952;BMP180;56000;51.146;17.112;2022-08-01T06:29:52;99933.40;;;18.80
68952;BMP180;56000;51.146;17.112;2022-08-01T06:32:26;99930.60;;;19.02
68952;BMP180;56000;51.146;17.112;2022-08-01T06:34:58;99929.20;;;19.30
68952;BMP180;56000;51.146;17.112;2022-08-01T06:37:33;99933.60;;;19.50
68952;BMP180;56000;51.146;17.112;2022-08-01T06:40:09;99931.40;;;19.70
68952;BMP180;56000;51.146;17.112;2022-08-01T06:42:48;99938.20;;;19.90
68952;BMP180;56000;51.146;17.112;2022-08-01T06:45:21;99933.40;;;20.00
68952;BMP180;56000;51.146;17.112;2022-08-01T06:47:56;99935.20;;;20.10
68952;BMP180;56000;51.146;17.112;2022-08-01T06:50:29;99931.20;;;20.20
68952;BMP180;56000;51.146;17.112;2022-08-01T06:53:02;99935.40;;;20.30
68952;BMP180;56000;51.146;17.112;2022-08-01T06:55:35;99930.60;;;20.50
68952;BMP180;56000;51.146;17.112;2022-08-01T06:58:08;99936.00;;;20.60
68952;BMP180;56000;51.146;17.112;2022-08-01T07:00:41;99931.40;;;20.80
68952;BMP180;56000;51.146;17.112;2022-08-01T07:03:14;99937.60;;;21.00
68952;BMP180;56000;51.146;17.112;2022-08-01T07:05:47;99935.80;;;21.20
68952;BMP180;56000;51.146;17.112;2022-08-01T07:08:20;99933.20;;;21.40
68952;BMP180;56000;51.146;17.112;2022-08-01T07:10:53;99933.60;;;21.60
68952;BMP180;56000;51.146;17.112;2022-08-01T07:13:27;99935.20;;;21.80
68952;BMP180;56000;51.146;17.112;2022-08-01T07:16:16;99935.40;;;22.08
68952;BMP180;56000;51.146;17.112;2022-08-01T07:18:49;99931.60;;;22.30
68952;BMP180;56000;51.146;17.112;2022-08-01T07:21:22;99936.80;;;22.60
68952;BMP180;56000;51.146;17.112;2022-08-01T07:24:12;99939.20;;;22.90
68952;BMP180;56000;51.146;17.112;2022-08-01T07:26:49;99939.60;;;23.10
68952;BMP180;56000;51.146;17.112;2022-08-01T07:29:26;99941.80;;;23.34
68952;BMP180;56000;51.146;17.112;2022-08-01T07:31:59;99941.40;;;23.64
68952;BMP180;56000;51.146;17.112;2022-08-01T07:34:33;99937.00;;;24.04
68952;BMP180;56000;51.146;17.112;2022-08-01T07:37:06;99938.20;;;24.50
68952;BMP180;56000;51.146;17.112;2022-08-01T07:39:39;99938.20;;;24.78
68952;BMP180;56000;51.146;17.112;2022-08-01T07:42:12;99939.60;;;25.00
68952;BMP180;56000;51.146;17.112;2022-08-01T07:44:45;99939.40;;;25.22
68952;BMP180;56000;51.146;17.112;2022-08-01T07:47:24;99943.20;;;25.40
68952;BMP180;56000;51.146;17.112;2022-08-01T07:50:02;99946.40;;;25.50
68952;BMP180;56000;51.146;17.112;2022-08-01T07:52:35;99945.00;;;25.48
68952;BMP180;56000;51.146;17.112;2022-08-01T07:55:12;99947.20;;;25.50
68952;BMP180;56000;51.146;17.112;2022-08-01T07:57:47;99944.00;;;25.60
68952;BMP180;56000;51.146;17.112;2022-08-01T08:00:20;99943.80;;;25.70
68952;BMP180;56000;51.146;17.112;2022-08-01T08:02:53;99947.20;;;25.70
68952;BMP180;56000;51.146;17.112;2022-08-01T08:05:26;99953.40;;;25.60
68952;BMP180;56000;51.146;17.112;2022-08-01T08:08:19;99951.20;;;25.40
68952;BMP180;56000;51.146;17.112;2022-08-01T08:10:52;99953.40;;;25.30
68952;BMP180;56000;51.146;17.112;2022-08-01T08:13:25;99954.40;;;25.14
68952;BMP180;56000;51.146;17.112;2022-08-01T08:15:57;99956.80;;;25.00
68952;BMP180;56000;51.146;17.112;2022-08-01T08:18:31;99952.80;;;25.00
68952;BMP180;56000;51.146;17.112;2022-08-01T08:21:05;99954.00;;;25.06
68952;BMP180;56000;51.146;17.112;2022-08-01T08:23:38;99955.20;;;25.10
68952;BMP180;56000;51.146;17.112;2022-08-01T08:26:28;99959.60;;;25.20
68952;BMP180;56000;51.146;17.112;2022-08-01T08:29:01;99963.80;;;25.30
68952;BMP180;56000;51.146;17.112;2022-08-01T08:31:34;99965.40;;;25.50
68952;BMP180;56000;51.146;17.112;2022-08-01T08:34:23;99972.20;;;25.80
68952;BMP180;56000;51.146;17.112;2022-08-01T08:36:57;99971.00;;;26.00
68952;BMP180;56000;51.146;17.112;2022-08-01T08:39:31;99972.60;;;26.20
68952;BMP180;56000;51.146;17.112;2022-08-01T08:42:13;99976.80;;;26.30
68952;BMP180;56000;51.146;17.112;2022-08-01T08:44:46;99973.20;;;26.46
68952;BMP180;56000;51.146;17.112;2022-08-01T08:47:20;99976.60;;;26.58
68952;BMP180;56000;51.146;17.112;2022-08-01T08:49:55;99972.80;;;26.60
68952;BMP180;56000;51.146;17.112;2022-08-01T08:52:29;99974.60;;;26.70
68952;BMP180;56000;51.146;17.112;2022-08-01T08:55:03;99972.40;;;26.80
68952;BMP180;56000;51.146;17.112;2022-08-01T08:57:36;99983.00;;;26.90
68952;BMP180;56000;51.146;17.112;2022-08-01T09:00:14;99982.60;;;27.00
68952;BMP180;56000;51.146;17.112;2022-08-01T09:02:49;99984.20;;;27.28
68952;BMP180;56000;51.146;17.112;2022-08-01T09:05:25;99985.60;;;27.50
68952;BMP180;56000;51.146;17.112;2022-08-01T09:08:11;99986.80;;;27.60
68952;BMP180;56000;51.146;17.112;2022-08-01T09:10:44;99992.40;;;27.60
68952;BMP180;56000;51.146;17.112;2022-08-01T09:13:17;99990.00;;;27.60
68952;BMP180;56000;51.146;17.112;2022-08-01T09:15:53;99992.00;;;27.80
68952;BMP180;56000;51.146;17.112;2022-08-01T09:18:33;99990.20;;;28.00
68952;BMP180;56000;51.146;17.112;2022-08-01T09:21:15;99987.40;;;28.18
68952;BMP180;56000;51.146;17.112;2022-08-01T09:23:51;99989.80;;;28.92
68952;BMP180;56000;51.146;17.112;2022-08-01T09:26:34;99993.20;;;29.72
68952;BMP180;56000;51.146;17.112;2022-08-01T09:29:16;99991.40;;;30.20
68952;BMP180;56000;51.146;17.112;2022-08-01T09:32:09;99989.60;;;30.30
68952;BMP180;56000;51.146;17.112;2022-08-01T09:34:47;99993.00;;;30.38
68952;BMP180;56000;51.146;17.112;2022-08-01T09:37:30;99989.60;;;30.70
68952;BMP180;56000;51.146;17.112;2022-08-01T09:40:17;99989.80;;;31.10
68952;BMP180;56000;51.146;17.112;2022-08-01T09:42:51;99990.80;;;31.10
68952;BMP180;56000;51.146;17.112;2022-08-01T09:45:45;99995.40;;;31.20
68952;BMP180;56000;51.146;17.112;2022-08-01T09:48:22;99991.00;;;31.30
68952;BMP180;56000;51.146;17.112;2022-08-01T09:51:00;99993.20;;;31.30
68952;BMP180;56000;51.146;17.112;2022-08-01T09:53:47;99990.20;;;31.30
68952;BMP180;56000;51.146;17.112;2022-08-01T09:56:24;99989.60;;;31.48
68952;BMP180;56000;51.146;17.112;2022-08-01T09:58:59;99993.60;;;31.50
68952;BMP180;56000;51.146;17.112;2022-08-01T10:01:48;99992.40;;;31.32
68952;BMP180;56000;51.146;17.112;2022-08-01T10:04:22;99995.20;;;30.90
68952;BMP180;56000;51.146;17.112;2022-08-01T10:07:05;99990.40;;;30.60
68952;BMP180;56000;51.146;17.112;2022-08-01T10:09:39;99995.80;;;30.20
68952;BMP180;56000;51.146;17.112;2022-08-01T10:12:14;99995.60;;;30.10
68952;BMP180;56000;51.146;17.112;2022-08-01T10:14:49;99993.20;;;30.22
68952;BMP180;56000;51.146;17.112;2022-08-01T10:17:26;99992.60;;;30.32
68952;BMP180;56000;51.146;17.112;2022-08-01T10:20:19;99989.20;;;30.20
68952;BMP180;56000;51.146;17.112;2022-08-01T10:23:04;99991.40;;;30.74
68952;BMP180;56000;51.146;17.112;2022-08-01T10:25:42;99988.00;;;31.60
68952;BMP180;56000;51.146;17.112;2022-08-01T10:28:20;99989.80;;;32.56
68952;BMP180;56000;51.146;17.112;2022-08-01T10:30:55;99981.20;;;33.38
68952;BMP180;56000;51.146;17.112;2022-08-01T10:33:30;99990.20;;;34.00
68952;BMP180;56000;51.146;17.112;2022-08-01T10:36:23;99984.80;;;34.96
68952;BMP180;56000;51.146;17.112;2022-08-01T10:38:57;99983.80;;;35.86
68952;BMP180;56000;51.146;17.112;2022-08-01T10:41:31;99986.00;;;36.10
68952;BMP180;56000;51.146;17.112;2022-08-01T10:44:07;99989.20;;;36.78
68952;BMP180;56000;51.146;17.112;2022-08-01T10:46:50;99988.60;;;37.10
68952;BMP180;56000;51.146;17.112;2022-08-01T10:49:29;99980.60;;;36.80
68952;BMP180;56000;51.146;17.112;2022-08-01T10:52:03;99982.60;;;36.82
68952;BMP180;56000;51.146;17.112;2022-08-01T10:54:42;99981.80;;;35.90
68952;BMP180;56000;51.146;17.112;2022-08-01T10:57:23;99986.40;;;36.68
68952;BMP180;56000;51.146;17.112;2022-08-01T11:00:02;99980.60;;;37.14
68952;BMP180;56000;51.146;17.112;2022-08-01T11:02:36;99981.00;;;38.14
68952;BMP180;56000;51.146;17.112;2022-08-01T11:05:22;99993.20;;;38.46
68952;BMP180;56000;51.146;17.112;2022-08-01T11:08:01;99985.60;;;38.42
68952;BMP180;56000;51.146;17.112;2022-08-01T11:10:41;99993.40;;;39.16
68952;BMP180;56000;51.146;17.112;2022-08-01T11:13:15;99994.60;;;38.40
68952;BMP180;56000;51.146;17.112;2022-08-01T11:19:03;99995.60;;;35.20
68952;BMP180;56000;51.146;17.112;2022-08-01T11:22:01;99997.20;;;34.52
68952;BMP180;56000;51.146;17.112;2022-08-01T11:24:59;99998.40;;;33.54
68952;BMP180;56000;51.146;17.112;2022-08-01T11:27:33;99994.80;;;32.98
68952;BMP180;56000;51.146;17.112;2022-08-01T11:30:25;99994.60;;;32.40
68952;BMP180;56000;51.146;17.112;2022-08-01T11:32:59;99992.00;;;31.88
68952;BMP180;56000;51.146;17.112;2022-08-01T11:36:17;99989.40;;;31.80
68952;BMP180;56000;51.146;17.112;2022-08-01T11:39:19;99991.60;;;31.70
68952;BMP180;56000;51.146;17.112;2022-08-01T11:41:52;99988.00;;;31.82
68952;BMP180;56000;51.146;17.112;2022-08-01T11:44:27;99998.80;;;31.72
68952;BMP180;56000;51.146;17.112;2022-08-01T11:47:03;99996.60;;;31.42
68952;BMP180;56000;51.146;17.112;2022-08-01T11:49:57;99998.20;;;31.20
68952;BMP180;56000;51.146;17.112;2022-08-01T11:52:32;99999.40;;;31.20
68952;BMP180;56000;51.146;17.112;2022-08-01T11:55:10;99994.20;;;31.10
68952;BMP180;56000;51.146;17.112;2022-08-01T11:57:47;99994.20;;;30.90
68952;BMP180;56000;51.146;17.112;2022-08-01T12:00:21;99999.80;;;30.80
68952;BMP180;56000;51.146;17.112;2022-08-01T12:03:02;99998.00;;;30.70
68952;BMP180;56000;51.146;17.112;2022-08-01T12:05:36;99992.20;;;30.70
68952;BMP180;56000;51.146;17.112;2022-08-01T12:08:13;99983.40;;;30.70
68952;BMP180;56000;51.146;17.112;2022-08-01T12:10:56;99988.20;;;30.90
68952;BMP180;56000;51.146;17.112;2022-08-01T12:13:41;99986.00;;;31.00
68952;BMP180;56000;51.146;17.112;2022-08-01T12:16:15;99985.80;;;31.00
68952;BMP180;56000;51.146;17.112;2022-08-01T12:18:54;99984.80;;;31.20
68952;BMP180;56000;51.146;17.112;2022-08-01T12:21:27;99975.60;;;32.08
68952;BMP180;56000;51.146;17.112;2022-08-01T12:24:05;99980.20;;;34.68
68952;BMP180;56000;51.146;17.112;2022-08-01T12:26:44;99977.60;;;35.50
68952;BMP180;56000;51.146;17.112;2022-08-01T12:29:35;99981.80;;;35.60
68952;BMP180;56000;51.146;17.112;2022-08-01T12:32:25;99981.80;;;35.00
68952;BMP180;56000;51.146;17.112;2022-08-01T12:35:09;99983.00;;;34.42
68952;BMP180;56000;51.146;17.112;2022-08-01T12:37:50;99984.60;;;34.20
68952;BMP180;56000;51.146;17.112;2022-08-01T12:40:27;99988.60;;;33.54
68952;BMP180;56000;51.146;17.112;2022-08-01T12:43:06;99976.80;;;33.00
68952;BMP180;56000;51.146;17.112;2022-08-01T12:45:48;99965.80;;;33.42
68952;BMP180;56000;51.146;17.112;2022-08-01T12:48:28;99966.20;;;35.68
68952;BMP180;56000;51.146;17.112;2022-08-01T12:51:04;99967.40;;;37.40
68952;BMP180;56000;51.146;17.112;2022-08-01T12:53:38;99969.40;;;39.08
68952;BMP180;56000;51.146;17.112;2022-08-01T12:56:12;99964.40;;;39.82
68952;BMP180;56000;51.146;17.112;2022-08-01T12:58:46;99983.60;;;39.68
68952;BMP180;56000;51.146;17.112;2022-08-01T13:01:26;99980.20;;;38.12
68952;BMP180;56000;51.146;17.112;2022-08-01T13:04:05;99989.80;;;36.30
68952;BMP180;56000;51.146;17.112;2022-08-01T13:06:37;99985.40;;;34.54
68952;BMP180;56000;51.146;17.112;2022-08-01T13:09:11;99987.60;;;33.46
68952;BMP180;56000;51.146;17.112;2022-08-01T13:11:44;99988.00;;;32.76
68952;BMP180;56000;51.146;17.112;2022-08-01T13:14:34;99985.60;;;32.30
68952;BMP180;56000;51.146;17.112;2022-08-01T13:17:12;99982.60;;;32.00
68952;BMP180;56000;51.146;17.112;2022-08-01T13:20:00;99988.40;;;32.12
68952;BMP180;56000;51.146;17.112;2022-08-01T13:22:37;99982.00;;;32.50
68952;BMP180;56000;51.146;17.112;2022-08-01T13:25:18;99982.80;;;32.44
68952;BMP180;56000;51.146;17.112;2022-08-01T13:28:16;99974.20;;;32.44
68952;BMP180;56000;51.146;17.112;2022-08-01T13:31:02;99978.00;;;34.04
68952;BMP180;56000;51.146;17.112;2022-08-01T13:33:45;99984.40;;;35.04
68952;BMP180;56000;51.146;17.112;2022-08-01T13:36:30;99982.40;;;34.90
68952;BMP180;56000;51.146;17.112;2022-08-01T13:39:04;99983.00;;;35.32
68952;BMP180;56000;51.146;17.112;2022-08-01T13:41:55;99977.60;;;36.62
68952;BMP180;56000;51.146;17.112;2022-08-01T13:44:28;99976.40;;;36.66
68952;BMP180;56000;51.146;17.112;2022-08-01T13:47:01;99975.40;;;37.72
68952;BMP180;56000;51.146;17.112;2022-08-01T13:49:47;99982.60;;;38.38
68952;BMP180;56000;51.146;17.112;2022-08-01T13:52:20;99980.40;;;39.24
68952;BMP180;56000;51.146;17.112;2022-08-01T13:54:53;99983.80;;;39.20
68952;BMP180;56000;51.146;17.112;2022-08-01T13:57:26;99984.20;;;38.66
68952;BMP180;56000;51.146;17.112;2022-08-01T14:00:12;99982.80;;;38.10
68952;BMP180;56000;51.146;17.112;2022-08-01T14:02:45;99991.80;;;38.12
68952;BMP180;56000;51.146;17.112;2022-08-01T14:05:18;99989.00;;;37.78
68952;BMP180;56000;51.146;17.112;2022-08-01T14:07:51;99994.20;;;37.56
68952;BMP180;56000;51.146;17.112;2022-08-01T14:10:27;99986.20;;;37.40
68952;BMP180;56000;51.146;17.112;2022-08-01T14:13:00;99993.00;;;38.70
68952;BMP180;56000;51.146;17.112;2022-08-01T14:15:37;99994.80;;;39.62
68952;BMP180;56000;51.146;17.112;2022-08-01T14:18:11;99996.80;;;39.50
68952;BMP180;56000;51.146;17.112;2022-08-01T14:20:46;99997.20;;;40.18
68952;BMP180;56000;51.146;17.112;2022-08-01T14:23:20;99999.20;;;39.80
68952;BMP180;56000;51.146;17.112;2022-08-01T14:25:54;100008.00;;;40.46
68952;BMP180;56000;51.146;17.112;2022-08-01T14:28:35;100009.80;;;41.10
68952;BMP180;56000;51.146;17.112;2022-08-01T14:31:09;100010.80;;;41.68
68952;BMP180;56000;51.146;17.112;2022-08-01T14:33:42;100009.20;;;40.78
68952;BMP180;56000;51.146;17.112;2022-08-01T14:36:15;100008.80;;;40.06
68952;BMP180;56000;51.146;17.112;2022-08-01T14:39:01;100007.20;;;39.46
68952;BMP180;56000;51.146;17.112;2022-08-01T14:41:34;100013.00;;;39.58
68952;BMP180;56000;51.146;17.112;2022-08-01T14:44:07;100010.20;;;38.18
68952;BMP180;56000;51.146;17.112;2022-08-01T14:46:40;100013.00;;;36.94
68952;BMP180;56000;51.146;17.112;2022-08-01T14:49:29;100020.60;;;36.78
68952;BMP180;56000;51.146;17.112;2022-08-01T14:52:02;100020.80;;;36.34
68952;BMP180;56000;51.146;17.112;2022-08-01T14:54:35;100023.20;;;35.54
68952;BMP180;56000;51.146;17.112;2022-08-01T14:57:09;100021.20;;;35.06